Time;durP1;ratioP1;P1;durP2;ratioP2;P2;SDS_P1;SDS_P2;PMS_P1;PMS_P2;Temp;Humidity;BMP_temperature;BMP_pressure;BME280_temperature;BME280_humidity;BME280_pressure;Samples;Min_cycle;Max_cycle;Signal;HPM_P1;HPM_P2
2023/05/19 13:26:23;;;;;;;;;7.40;7.40;;;;;;;;6287447;22;45723;-74
2023/05/19 13:28:48;;;;;;;;;7.50;6.25;;;;;;;;6372764;22;45209;-75
2023/05/19 13:31:14;;;;;;;;;7.50;7.50;;;;;;;;6373992;22;45222;-75
2023/05/19 13:33:39;;;;;;;;;1.75;1.75;;;;;;;;6374675;22;45978;-75
2023/05/19 13:36:05;;;;;;;;;7.25;7.25;;;;;;;;6372501;22;45373;-75
2023/05/19 13:38:31;;;;;;;;;9.00;8.60;;;;;;;;6371580;22;45557;-75
2023/05/19 13:40:56;;;;;;;;;6.25;6.25;;;;;;;;6372277;22;45467;-75
2023/05/19 13:43:21;;;;;;;;;9.75;7.25;;;;;;;;6372420;22;46195;-77
2023/05/19 13:45:47;;;;;;;;;8.75;7.75;;;;;;;;6372413;22;45316;-76
2023/05/19 13:48:12;;;;;;;;;10.25;8.75;;;;;;;;6373063;22;45788;-76
2023/05/19 13:50:37;;;;;;;;;7.00;6.00;;;;;;;;6372712;22;45260;-76
2023/05/19 13:53:02;;;;;;;;;9.25;8.75;;;;;;;;6371829;22;45215;-76
2023/05/19 13:55:28;;;;;;;;;8.50;5.00;;;;;;;;6343540;22;45342;-77
2023/05/19 13:57:53;;;;;;;;;5.50;5.50;;;;;;;;6371785;22;45249;-76
2023/05/19 14:00:18;;;;;;;;;9.25;9.00;;;;;;;;6373207;22;45309;-77
2023/05/19 14:02:44;;;;;;;;;7.75;6.50;;;;;;;;6374113;22;45338;-77
2023/05/19 14:05:09;;;;;;;;;6.75;5.50;;;;;;;;6375430;22;45219;-77
2023/05/19 14:07:34;;;;;;;;;7.50;6.75;;;;;;;;6376359;22;45385;-78
2023/05/19 14:10:00;;;;;;;;;8.50;6.50;;;;;;;;6374605;22;45409;-76
2023/05/19 14:12:25;;;;;;;;;8.25;8.00;;;;;;;;6370350;22;45250;-77
2023/05/19 14:14:50;;;;;;;;;7.75;7.50;;;;;;;;6372150;22;45559;-77
2023/05/19 14:17:15;;;;;;;;;8.00;6.75;;;;;;;;6343861;22;45269;-77
2023/05/19 14:19:40;;;;;;;;;6.75;6.75;;;;;;;;6372642;22;45251;-76
2023/05/19 14:22:06;;;;;;;;;5.00;4.00;;;;;;;;6370635;22;46288;-75
2023/05/19 14:24:31;;;;;;;;;6.00;5.25;;;;;;;;6371824;22;45340;-76
2023/05/19 14:26:56;;;;;;;;;8.00;8.00;;;;;;;;6342801;22;45305;-77
2023/05/19 14:29:21;;;;;;;;;6.75;6.75;;;;;;;;6372423;22;45518;-76
2023/05/19 14:31:47;;;;;;;;;8.00;8.00;;;;;;;;6371587;22;46382;-75
2023/05/19 14:34:16;;;;;;;;;6.00;6.00;;;;;;;;6372326;22;45246;-77
2023/05/19 14:36:41;;;;;;;;;7.25;5.75;;;;;;;;6371031;22;45245;-76
2023/05/19 14:39:06;;;;;;;;;8.00;8.00;;;;;;;;6372693;22;45138;-76
2023/05/19 14:41:32;;;;;;;;;8.75;7.25;;;;;;;;6342918;22;47509;-76
2023/05/19 14:43:57;;;;;;;;;7.50;7.50;;;;;;;;6374446;22;45392;-77
2023/05/19 14:46:22;;;;;;;;;9.75;8.00;;;;;;;;6348042;22;45495;-76
2023/05/19 14:48:47;;;;;;;;;9.75;9.75;;;;;;;;6376245;22;45604;-77
2023/05/19 14:51:13;;;;;;;;;8.50;8.50;;;;;;;;6376372;22;45391;-77
2023/05/19 14:53:38;;;;;;;;;9.00;7.00;;;;;;;;6376143;22;45179;-77
2023/05/19 14:56:03;;;;;;;;;10.25;8.75;;;;;;;;6372254;22;45320;-77
2023/05/19 14:58:28;;;;;;;;;10.00;8.75;;;;;;;;6372535;22;45237;-77
2023/05/19 15:00:55;;;;;;;;;7.00;7.00;;;;;;;;6372342;22;45314;-76
2023/05/19 15:03:22;;;;;;;;;6.50;6.50;;;;;;;;6372509;22;45182;-77
2023/05/19 15:05:48;;;;;;;;;8.00;7.00;;;;;;;;6372195;22;45332;-76
2023/05/19 15:08:13;;;;;;;;;7.25;7.25;;;;;;;;6372268;22;45136;-77
2023/05/19 15:10:38;;;;;;;;;8.00;7.00;;;;;;;;6371657;22;46135;-76
2023/05/19 15:13:03;;;;;;;;;9.50;8.25;;;;;;;;6343272;22;45179;-77
2023/05/19 15:15:29;;;;;;;;;7.75;7.75;;;;;;;;6371002;22;45166;-75
2023/05/19 15:17:54;;;;;;;;;8.50;8.50;;;;;;;;6372279;22;45284;-75
2023/05/19 15:20:20;;;;;;;;;8.75;8.00;;;;;;;;6371770;22;45342;-74
2023/05/19 15:22:45;;;;;;;;;7.50;7.50;;;;;;;;6371731;22;45223;-75
2023/05/19 15:25:10;;;;;;;;;8.75;7.75;;;;;;;;6344326;22;45463;-75
2023/05/19 15:27:35;;;;;;;;;7.25;7.25;;;;;;;;6372427;22;45275;-76
2023/05/19 15:30:01;;;;;;;;;9.25;9.00;;;;;;;;6346764;22;45303;-75
2023/05/19 15:32:26;;;;;;;;;10.00;10.00;;;;;;;;6374184;22;45269;-75
2023/05/19 15:34:52;;;;;;;;;6.75;6.75;;;;;;;;6345712;22;45256;-75
2023/05/19 15:37:17;;;;;;;;;8.00;7.00;;;;;;;;6372995;22;45182;-75
2023/05/19 15:39:42;;;;;;;;;9.00;9.00;;;;;;;;6374085;22;45369;-75
2023/05/19 15:42:07;;;;;;;;;9.00;7.75;;;;;;;;6370894;22;45250;-76
2023/05/19 15:44:35;;;;;;;;;9.00;7.00;;;;;;;;6373002;22;45200;-76
2023/05/19 15:47:00;;;;;;;;;9.00;7.00;;;;;;;;6372041;22;45325;-76
2023/05/19 15:49:25;;;;;;;;;8.25;8.25;;;;;;;;6371786;22;45341;-75
2023/05/19 15:51:50;;;;;;;;;8.50;8.00;;;;;;;;6371824;22;45277;-75
2023/05/19 15:54:15;;;;;;;;;9.00;7.75;;;;;;;;6371926;22;45458;-75
2023/05/19 15:56:41;;;;;;;;;10.50;7.25;;;;;;;;6371304;22;45174;-75
2023/05/19 15:59:06;;;;;;;;;6.75;6.75;;;;;;;;6371959;22;46201;-75
2023/05/19 16:01:31;;;;;;;;;6.50;5.25;;;;;;;;6371660;22;45179;-75
2023/05/19 16:03:56;;;;;;;;;8.50;8.50;;;;;;;;6372484;22;45254;-75
2023/05/19 16:06:23;;;;;;;;;10.00;8.00;;;;;;;;6371537;22;45529;-74
2023/05/19 16:08:48;;;;;;;;;10.75;6.00;;;;;;;;6371616;22;45332;-75
2023/05/19 16:11:13;;;;;;;;;6.00;6.00;;;;;;;;6371641;22;45183;-75
2023/05/19 16:13:38;;;;;;;;;10.00;8.50;;;;;;;;6373146;22;45490;-75
2023/05/19 16:16:04;;;;;;;;;10.25;8.00;;;;;;;;6372589;22;45386;-74
2023/05/19 16:18:29;;;;;;;;;9.00;8.00;;;;;;;;6373836;22;45180;-73
2023/05/19 16:20:54;;;;;;;;;7.50;6.50;;;;;;;;6374857;22;45364;-74
2023/05/19 16:23:20;;;;;;;;;9.25;7.00;;;;;;;;6372903;22;45073;-74
2023/05/19 16:25:46;;;;;;;;;10.75;9.25;;;;;;;;6371254;22;45380;-74
2023/05/19 16:28:11;;;;;;;;;9.50;6.75;;;;;;;;6371059;22;46587;-74
2023/05/19 16:30:36;;;;;;;;;8.75;7.75;;;;;;;;6371474;22;45200;-74
2023/05/19 16:33:02;;;;;;;;;6.00;6.00;;;;;;;;6371877;22;45655;-74
2023/05/19 16:35:28;;;;;;;;;9.25;9.25;;;;;;;;6371234;22;45381;-74
2023/05/19 16:37:53;;;;;;;;;8.50;8.00;;;;;;;;6371192;22;46813;-74
2023/05/19 16:40:18;;;;;;;;;7.50;5.25;;;;;;;;6370721;22;45218;-74
2023/05/19 16:42:44;;;;;;;;;6.25;6.25;;;;;;;;6371405;22;45290;-74
2023/05/19 16:45:09;;;;;;;;;8.00;8.00;;;;;;;;6369891;22;45324;-74
2023/05/19 16:47:34;;;;;;;;;9.00;6.50;;;;;;;;6371429;22;45439;-74
2023/05/19 16:49:59;;;;;;;;;9.25;7.75;;;;;;;;6343044;22;45206;-74
2023/05/19 16:52:25;;;;;;;;;9.50;8.00;;;;;;;;6371887;22;45313;-74
2023/05/19 16:54:50;;;;;;;;;7.25;5.50;;;;;;;;6371286;22;45340;-73
2023/05/19 16:57:15;;;;;;;;;7.25;7.25;;;;;;;;6344003;22;47325;-74
2023/05/19 16:59:40;;;;;;;;;8.00;7.75;;;;;;;;6373113;22;45302;-74
2023/05/19 17:02:06;;;;;;;;;8.75;7.75;;;;;;;;6374824;22;45258;-74
2023/05/19 17:04:31;;;;;;;;;10.33;9.33;;;;;;;;6374252;22;45214;-72
2023/05/19 17:06:56;;;;;;;;;6.25;5.75;;;;;;;;6372655;22;45237;-72
2023/05/19 17:09:24;;;;;;;;;8.50;7.50;;;;;;;;6344146;22;45282;-73
2023/05/19 17:11:50;;;;;;;;;10.00;9.00;;;;;;;;6372423;22;45233;-72
2023/05/19 17:14:15;;;;;;;;;6.67;6.67;;;;;;;;6373212;22;45242;-73
2023/05/19 17:16:40;;;;;;;;;8.33;8.33;;;;;;;;6372647;22;45210;-74
2023/05/19 17:19:05;;;;;;;;;12.00;10.00;;;;;;;;6317878;22;45224;-73
2023/05/19 17:21:31;;;;;;;;;35.33;32.67;;;;;;;;6372820;22;45373;-73
2023/05/19 17:23:56;;;;;;;;;15.00;12.00;;;;;;;;6373349;22;45149;-73
2023/05/19 17:26:21;;;;;;;;;16.67;12.00;;;;;;;;6370867;22;45383;-72
2023/05/19 17:28:47;;;;;;;;;10.33;10.33;;;;;;;;6373217;22;45134;-72
2023/05/19 17:31:13;;;;;;;;;11.33;11.33;;;;;;;;6372979;22;45131;-73
2023/05/19 17:33:38;;;;;;;;;11.00;10.33;;;;;;;;6373131;22;45301;-73
2023/05/19 17:36:04;;;;;;;;;12.67;11.33;;;;;;;;6372571;22;45227;-73
2023/05/19 17:38:31;;;;;;;;;11.33;11.33;;;;;;;;6372520;22;45289;-73
2023/05/19 17:40:59;;;;;;;;;11.00;9.00;;;;;;;;6372088;22;45238;-73
2023/05/19 17:43:25;;;;;;;;;18.00;17.67;;;;;;;;6373114;22;45143;-73
2023/05/19 17:45:50;;;;;;;;;17.33;15.33;;;;;;;;6344779;22;48597;-73
2023/05/19 17:48:15;;;;;;;;;9.00;9.00;;;;;;;;6373943;22;45293;-72
2023/05/19 17:50:40;;;;;;;;;8.33;8.33;;;;;;;;6373409;22;45194;-71
2023/05/19 17:53:06;;;;;;;;;10.33;10.00;;;;;;;;6372945;22;45167;-71
2023/05/19 17:55:31;;;;;;;;;5.67;5.67;;;;;;;;6372168;22;45911;-72
2023/05/19 17:57:56;;;;;;;;;13.33;10.00;;;;;;;;6370620;22;45217;-72
2023/05/19 18:00:22;;;;;;;;;10.00;9.00;;;;;;;;6372611;22;45171;-72
2023/05/19 18:02:47;;;;;;;;;10.00;9.00;;;;;;;;6343585;22;46253;-72
2023/05/19 18:05:13;;;;;;;;;13.00;12.00;;;;;;;;6372302;22;45228;-72
2023/05/19 18:07:40;;;;;;;;;14.67;14.00;;;;;;;;6343847;22;45224;-72
2023/05/19 18:10:07;;;;;;;;;12.00;12.00;;;;;;;;6373041;22;45349;-73
2023/05/19 18:12:32;;;;;;;;;32.67;30.00;;;;;;;;6371302;22;45286;-72
2023/05/19 18:14:57;;;;;;;;;17.33;12.67;;;;;;;;6372720;22;45285;-73
2023/05/19 18:17:22;;;;;;;;;11.00;11.00;;;;;;;;6371081;22;45262;-72
2023/05/19 18:19:48;;;;;;;;;14.67;14.67;;;;;;;;6372679;22;45327;-73
2023/05/19 18:22:13;;;;;;;;;11.33;10.00;;;;;;;;6371873;22;45163;-72
2023/05/19 18:24:38;;;;;;;;;9.67;9.00;;;;;;;;6372676;22;46181;-73
2023/05/19 18:27:04;;;;;;;;;13.67;10.67;;;;;;;;6372150;22;45174;-73
2023/05/19 18:29:29;;;;;;;;;10.67;9.67;;;;;;;;6373643;22;45171;-74
2023/05/19 18:31:54;;;;;;;;;12.67;11.67;;;;;;;;6373851;22;45352;-72
2023/05/19 18:34:20;;;;;;;;;12.33;10.00;;;;;;;;6373368;22;45374;-74
2023/05/19 18:36:45;;;;;;;;;13.33;13.00;;;;;;;;6370878;22;45218;-74
2023/05/19 18:39:10;;;;;;;;;12.00;11.00;;;;;;;;6372916;22;45212;-73
2023/05/19 18:41:36;;;;;;;;;11.67;10.00;;;;;;;;6372040;22;45209;-74
2023/05/19 18:44:01;;;;;;;;;12.67;10.67;;;;;;;;6372719;22;45150;-73
2023/05/19 18:46:26;;;;;;;;;11.67;11.00;;;;;;;;6372041;22;45193;-74
2023/05/19 18:48:52;;;;;;;;;13.33;11.00;;;;;;;;6372582;22;45152;-75
2023/05/19 18:51:18;;;;;;;;;12.67;10.67;;;;;;;;6372134;22;45210;-75
2023/05/19 18:53:44;;;;;;;;;12.33;12.33;;;;;;;;6371865;22;46934;-73
2023/05/19 18:56:10;;;;;;;;;13.00;10.33;;;;;;;;6371985;22;45218;-73
2023/05/19 18:58:35;;;;;;;;;10.67;9.67;;;;;;;;6372959;22;45221;-73
2023/05/19 19:01:00;;;;;;;;;15.00;12.33;;;;;;;;6372363;22;45238;-73
2023/05/19 19:03:27;;;;;;;;;14.67;13.00;;;;;;;;6372426;22;45348;-73
2023/05/19 19:05:55;;;;;;;;;14.67;11.67;;;;;;;;6371350;22;45256;-73
2023/05/19 19:08:21;;;;;;;;;6.00;6.00;;;;;;;;6372875;22;45117;-74
2023/05/19 19:10:49;;;;;;;;;13.33;13.00;;;;;;;;6372416;22;45044;-74
2023/05/19 19:13:14;;;;;;;;;13.67;11.67;;;;;;;;6371476;22;46165;-74
2023/05/19 19:15:39;;;;;;;;;15.00;13.33;;;;;;;;6345187;22;45302;-75
2023/05/19 19:18:04;;;;;;;;;18.67;15.00;;;;;;;;6371822;22;45324;-74
2023/05/19 19:20:29;;;;;;;;;18.33;17.33;;;;;;;;6372044;22;45241;-74
2023/05/19 19:22:55;;;;;;;;;37.67;32.33;;;;;;;;6371949;22;46169;-73
2023/05/19 19:25:20;;;;;;;;;17.00;14.67;;;;;;;;6342722;22;45265;-73
2023/05/19 19:27:46;;;;;;;;;19.67;16.67;;;;;;;;6371636;22;45372;-74
2023/05/19 19:30:11;;;;;;;;;18.00;17.33;;;;;;;;6372398;22;45229;-74
2023/05/19 19:32:36;;;;;;;;;14.33;14.33;;;;;;;;6372042;22;46014;-74
2023/05/19 19:35:01;;;;;;;;;14.00;14.00;;;;;;;;6372505;22;44688;-75
2023/05/19 19:37:26;;;;;;;;;12.00;10.67;;;;;;;;6372155;22;45222;-73
2023/05/19 19:39:52;;;;;;;;;14.33;14.33;;;;;;;;6371362;22;45338;-73
2023/05/19 19:42:17;;;;;;;;;15.00;14.00;;;;;;;;6370287;22;45270;-74
2023/05/19 19:44:42;;;;;;;;;13.67;13.67;;;;;;;;6372176;22;45302;-73
2023/05/19 19:47:08;;;;;;;;;13.67;11.33;;;;;;;;6372502;22;44584;-73
2023/05/19 19:49:33;;;;;;;;;15.00;12.67;;;;;;;;6372014;22;45196;-72
2023/05/19 19:51:58;;;;;;;;;14.00;13.00;;;;;;;;6370553;22;45329;-73
2023/05/19 19:54:23;;;;;;;;;12.33;9.33;;;;;;;;6372322;22;45208;-72
2023/05/19 19:56:49;;;;;;;;;13.00;13.00;;;;;;;;6371760;22;45479;-73
2023/05/19 19:59:14;;;;;;;;;15.33;15.33;;;;;;;;6372843;22;45248;-74
2023/05/19 20:01:40;;;;;;;;;41.50;34.50;;;;;;;;6372058;22;47071;-73
2023/05/19 20:04:05;;;;;;;;;53.25;40.50;;;;;;;;6372161;22;45195;-73
2023/05/19 20:06:32;;;;;;;;;46.50;39.25;;;;;;;;6372055;22;45661;-73
2023/05/19 20:08:57;;;;;;;;;62.25;48.75;;;;;;;;6371541;22;45184;-73
2023/05/19 20:11:23;;;;;;;;;61.25;47.25;;;;;;;;6370607;22;45175;-73
2023/05/19 20:13:48;;;;;;;;;78.50;65.25;;;;;;;;6371891;22;45247;-74
2023/05/19 20:16:13;;;;;;;;;71.75;55.50;;;;;;;;6371828;22;45265;-72
2023/05/19 20:18:39;;;;;;;;;88.00;76.75;;;;;;;;6343680;22;45391;-73
2023/05/19 20:21:04;;;;;;;;;65.25;52.25;;;;;;;;6371118;22;46830;-73
2023/05/19 20:23:29;;;;;;;;;51.00;41.25;;;;;;;;6342122;22;45265;-73
2023/05/19 20:25:55;;;;;;;;;41.75;35.00;;;;;;;;6371435;22;45298;-74
2023/05/19 20:28:20;;;;;;;;;42.25;35.25;;;;;;;;6371197;22;45316;-74
2023/05/19 20:30:45;;;;;;;;;56.50;44.50;;;;;;;;6372505;22;45238;-73
2023/05/19 20:33:10;;;;;;;;;30.50;28.50;;;;;;;;6372965;22;45397;-74
2023/05/19 20:35:36;;;;;;;;;32.00;29.33;;;;;;;;6372891;22;45214;-73
2023/05/19 20:38:01;;;;;;;;;56.00;43.75;;;;;;;;6372911;22;45328;-73
2023/05/19 20:40:26;;;;;;;;;56.75;45.25;;;;;;;;6372549;22;45394;-73
2023/05/19 20:42:52;;;;;;;;;55.50;45.25;;;;;;;;6373274;22;45254;-74
2023/05/19 20:45:17;;;;;;;;;42.75;35.75;;;;;;;;6373203;22;45258;-74
2023/05/19 20:47:42;;;;;;;;;33.75;30.50;;;;;;;;6344154;22;45355;-74
2023/05/19 20:50:07;;;;;;;;;29.33;27.33;;;;;;;;6373092;22;45320;-74
2023/05/19 20:52:33;;;;;;;;;30.50;27.75;;;;;;;;6372767;22;45376;-74
2023/05/19 20:54:58;;;;;;;;;32.50;28.75;;;;;;;;6373391;22;45414;-74
2023/05/19 20:57:23;;;;;;;;;30.75;28.25;;;;;;;;6372237;22;45776;-74
